Skip Navigation LinksHome page > Weather > Current weather Skip Navigation Links

Current Weather

Chicago O'Hare Intl, Chicago

For information only: do not use for flight planning or navigation.
Latest weather
Observation time Wednesday, November 26, 2014 2:08 AM CST
Local time Wednesday, November 26, 2014 2:34 AM CST
Flight conditions Visual Meteorological Conditions
Winds
Wind speed calm
Visibility 8 mi.
Sky condition
Ceiling unlimited
Cloud layer scattered clouds 1,000 ft.
Temperature 19°F
Dewpoint 16°F
Altimeter 30.17 in.Hg
Derived measurements
Relative humidity 86%
Wind chill 19°F
Density altitude -2301 ft.
Remarks
Special weather observation.
METAR SPUS31 KWBC 260812 SPECI KORD 260808Z 00000KT 8SM SCT010 M07/M09 A3017

Settings

Location code

InnerDrive.Weather 4.0.5399.0 Release CLR 4.0.30319.34014
Copyright ©2014 Inner Drive Technology. All rights reserved. Portions Copyright ©1986-2014 David Braverman.

Find weather

Site navigation


Skip Navigation Links

Place info

Page info

PayPal - The safer, easier way to pay online!

Return home.

Copyright ©2014 Inner Drive Technology. Purveyors of fine, hand-crafted computer software. Page printed 2014-11-26T08:34:17 UTC.